createdAt,value
2022-09-05T00:00:19.700Z,101548.84
2022-09-05T00:02:58.713Z,101550.66
2022-09-05T00:05:57.573Z,101547.06
2022-09-05T00:08:37.973Z,101539.03
2022-09-05T00:11:42.604Z,101556.91
2022-09-05T00:14:34.289Z,101549.81
2022-09-05T00:17:18.683Z,101548.91
2022-09-05T00:24:21.632Z,101558.75
2022-09-05T00:24:29.486Z,101548.94
2022-09-05T00:26:12.888Z,101559.69
2022-09-05T00:28:49.773Z,101553.44
2022-09-05T00:31:53.796Z,101555.28
2022-09-05T00:34:48.182Z,101557.13
2022-09-05T00:37:28.504Z,101560.81
2022-09-05T00:40:17.781Z,101558.97
2022-09-05T00:42:50.164Z,101568.88
2022-09-05T00:45:25.323Z,101563.50
2022-09-05T00:48:03.109Z,101565.25
2022-09-05T00:50:40.118Z,101564.38
2022-09-05T00:53:15.653Z,101570.66
2022-09-05T00:55:58.969Z,101567.06
2022-09-05T00:58:55.391Z,101572.41
2022-09-05T01:01:38.333Z,101557.13
2022-09-05T01:04:24.728Z,101565.16
2022-09-05T01:07:29.805Z,101573.25
2022-09-05T01:10:08.954Z,101567.00
2022-09-05T01:12:52.905Z,101572.34
2022-09-05T01:15:32.125Z,101575.91
2022-09-05T01:18:15.423Z,101574.09
2022-09-05T01:21:00.678Z,101578.56
2022-09-05T01:23:54.945Z,101573.19
2022-09-05T01:26:58.447Z,101577.66
2022-09-05T01:29:36.106Z,101577.72
2022-09-05T01:32:18.111Z,101579.47
2022-09-05T01:34:57.866Z,101587.53
2022-09-05T01:37:34.291Z,101580.41
2022-09-05T01:40:20.603Z,101583.13
2022-09-05T01:43:02.550Z,101575.06
2022-09-05T01:45:47.640Z,101576.00
2022-09-05T01:48:31.291Z,101576.03
2022-09-05T01:51:28.644Z,101584.09
2022-09-05T01:54:19.835Z,101585.94
2022-09-05T01:57:04.341Z,101589.63
2022-09-05T01:59:42.243Z,101585.19
2022-09-05T02:02:33.675Z,101579.00
2022-09-05T02:05:15.130Z,101582.69
2022-09-05T02:08:14.883Z,101583.66
2022-09-05T02:11:02.935Z,101584.72
2022-09-05T02:13:44.979Z,101582.09
2022-09-05T02:16:22.300Z,101579.50
2022-09-05T02:19:01.169Z,101580.50
2022-09-05T02:21:56.309Z,101584.22
2022-09-05T02:24:29.162Z,101578.91
2022-09-05T02:27:47.603Z,101589.78
2022-09-05T02:30:09.917Z,101585.31
2022-09-05T02:32:49.226Z,101579.09
2022-09-05T02:35:28.238Z,101582.78
2022-09-05T02:39:58.987Z,101579.25
2022-09-05T02:45:17.001Z,101580.25
2022-09-05T02:45:23.977Z,101581.22
2022-09-05T02:46:50.779Z,101580.34
2022-09-05T02:50:34.771Z,101575.03
2022-09-05T02:57:26.978Z,101575.94
2022-09-05T02:57:41.357Z,101568.78
2022-09-05T02:58:22.039Z,101580.44
2022-09-05T03:01:00.247Z,101584.03
2022-09-05T03:03:35.672Z,101573.31
2022-09-05T03:06:32.141Z,101574.28
2022-09-05T03:09:31.218Z,101570.66
2022-09-05T03:12:46.362Z,101564.44
2022-09-05T03:15:47.667Z,101564.44
2022-09-05T03:18:37.613Z,101569.81
2022-09-05T03:21:39.578Z,101552.88
2022-09-05T03:24:31.958Z,101555.56
2022-09-05T03:27:30.316Z,101561.88
2022-09-05T03:30:07.194Z,101552.06
2022-09-05T03:33:03.168Z,101561.94
2022-09-05T03:36:04.254Z,101556.63
2022-09-05T03:39:16.024Z,101556.69
2022-09-05T03:42:04.243Z,101556.81
2022-09-05T03:44:58.129Z,101556.84
2022-09-05T03:47:44.377Z,101557.78
2022-09-05T03:53:31.009Z,101555.09
2022-09-05T03:57:10.632Z,101560.59
2022-09-05T03:57:26.848Z,101563.34
2022-09-05T04:00:04.459Z,101564.31
2022-09-05T04:07:27.002Z,101563.50
2022-09-05T04:08:17.303Z,101558.16
2022-09-05T04:08:34.068Z,101560.03
2022-09-05T04:11:14.883Z,101560.97
2022-09-05T04:13:49.637Z,101561.91
2022-09-05T04:16:24.699Z,101565.50
2022-09-05T04:18:55.868Z,101566.44
2022-09-05T04:21:28.328Z,101578.09
2022-09-05T04:24:06.688Z,101573.72
2022-09-05T04:26:55.953Z,101578.25
2022-09-05T04:29:29.477Z,101582.78
2022-09-05T04:32:18.105Z,101581.94
2022-09-05T04:35:05.512Z,101588.19
2022-09-05T04:37:47.991Z,101588.28
2022-09-05T04:40:51.169Z,101594.56
2022-09-05T04:43:31.488Z,101595.50
2022-09-05T04:46:09.730Z,101600.91
2022-09-05T04:48:47.229Z,101597.38
2022-09-05T04:51:44.067Z,101599.19
2022-09-05T04:54:30.314Z,101608.16
2022-09-05T04:57:13.929Z,101612.66
2022-09-05T05:05:30.479Z,101619.81
2022-09-05T05:06:08.548Z,101614.50
2022-09-05T05:06:09.766Z,101616.28
2022-09-05T05:08:39.213Z,101619.03
2022-09-05T05:16:38.365Z,101621.72
2022-09-05T05:17:54.027Z,101625.28
2022-09-05T05:18:08.634Z,101630.66
2022-09-05T05:20:39.267Z,101635.16
2022-09-05T05:22:47.369Z,101636.03
2022-09-05T05:25:15.364Z,101637.88
2022-09-05T05:27:47.533Z,101631.63
2022-09-05T05:30:26.684Z,101634.31
2022-09-05T05:32:56.209Z,101634.28
2022-09-05T05:35:29.597Z,101645.00
2022-09-05T05:38:19.997Z,101645.00
2022-09-05T05:40:54.195Z,101649.47
2022-09-05T05:43:27.315Z,101653.94
2022-09-05T05:46:00.072Z,101649.47
2022-09-05T05:48:36.706Z,101653.94
2022-09-05T05:51:36.407Z,101660.19
2022-09-05T05:54:28.007Z,101655.72
2022-09-05T05:57:23.687Z,101661.09
2022-09-05T06:00:04.348Z,101665.53
2022-09-05T06:03:25.634Z,101673.53
2022-09-05T06:06:09.515Z,101664.63
2022-09-05T06:12:21.269Z,101664.59
2022-09-05T06:15:02.059Z,101669.91
2022-09-05T06:15:30.206Z,101666.31
2022-09-05T06:18:45.610Z,101670.75
2022-09-05T06:22:06.057Z,101672.50
2022-09-05T06:25:21.913Z,101670.66
2022-09-05T06:28:18.343Z,101674.19
2022-09-05T06:30:57.639Z,101669.69
2022-09-05T06:33:55.496Z,101673.19
2022-09-05T06:36:35.931Z,101671.34
2022-09-05T06:39:11.210Z,101668.59
2022-09-05T06:41:50.370Z,101670.31
2022-09-05T06:44:44.087Z,101671.13
2022-09-05T06:47:24.045Z,101671.09
2022-09-05T06:50:24.303Z,101664.81
2022-09-05T06:53:19.894Z,101674.56
2022-09-05T06:56:08.557Z,101663.72
2022-09-05T06:59:12.633Z,101669.91
2022-09-05T07:02:00.520Z,101664.47
2022-09-05T07:05:37.844Z,101670.63
2022-09-05T07:07:33.905Z,101666.91
2022-09-05T07:10:22.377Z,101660.53
2022-09-05T07:13:05.313Z,101670.25
2022-09-05T07:15:41.887Z,101663.84
2022-09-05T07:18:22.175Z,101670.91
2022-09-05T07:21:17.104Z,101668.06
2022-09-05T07:24:09.549Z,101665.16
2022-09-05T07:26:51.684Z,101666.84
2022-09-05T07:29:25.088Z,101665.84
2022-09-05T07:31:57.218Z,101656.72
2022-09-05T07:34:30.050Z,101659.19
2022-09-05T07:37:15.303Z,101667.97
2022-09-05T07:39:49.927Z,101661.53
2022-09-05T07:42:24.511Z,101674.78
2022-09-05T07:44:56.618Z,101671.06
2022-09-05T07:47:28.945Z,101670.00
2022-09-05T07:50:32.492Z,101668.06
2022-09-05T07:56:46.722Z,101668.72
2022-09-05T07:57:12.724Z,101670.28
2022-09-05T07:58:41.266Z,101669.13
2022-09-05T08:01:12.699Z,101665.28
2022-09-05T08:03:43.074Z,101665.94
2022-09-05T08:06:18.403Z,101653.09
2022-09-05T08:10:05.335Z,101663.50
2022-09-05T08:12:09.380Z,101662.28
2022-09-05T08:14:45.959Z,101669.09
2022-09-05T08:17:18.169Z,101663.34
2022-09-05T08:20:08.515Z,101662.00
2022-09-05T08:22:52.478Z,101658.81
2022-09-05T08:25:27.435Z,101655.63
2022-09-05T08:28:16.552Z,101659.66
2022-09-05T08:30:48.413Z,101661.94
2022-09-05T08:33:22.466Z,101663.31
2022-09-05T08:35:59.306Z,101663.69
2022-09-05T08:38:40.455Z,101653.28
2022-09-05T08:41:17.513Z,101652.88
2022-09-05T08:46:36.246Z,101656.84
2022-09-05T08:46:50.815Z,101657.38
2022-09-05T08:49:44.003Z,101655.84
2022-09-05T08:52:26.064Z,101648.97
2022-09-05T08:55:07.842Z,101650.19
2022-09-05T08:58:03.152Z,101643.28
2022-09-05T09:00:36.841Z,101639.16
2022-09-05T09:03:14.179Z,101643.09
2022-09-05T09:06:16.142Z,101644.25
2022-09-05T09:09:08.626Z,101643.78
2022-09-05T09:11:42.632Z,101629.72
2022-09-05T09:14:36.503Z,101628.09
2022-09-05T09:17:20.392Z,101626.75
2022-09-05T09:19:56.338Z,101635.28
2022-09-05T09:22:39.170Z,101636.59
2022-09-05T09:25:16.023Z,101635.38
2022-09-05T09:28:43.732Z,101631.38
2022-09-05T09:31:10.540Z,101627.38
2022-09-05T09:33:43.104Z,101621.31
2022-09-05T09:36:26.775Z,101630.53
2022-09-05T09:39:21.571Z,101618.03
2022-09-05T09:42:33.578Z,101618.06
2022-09-05T09:45:41.491Z,101612.13
2022-09-05T09:48:37.379Z,101610.25
2022-09-05T09:51:19.870Z,101603.06
2022-09-05T09:54:03.194Z,101604.84
2022-09-05T09:56:50.563Z,101596.03
2022-09-05T09:59:35.387Z,101584.28
2022-09-05T10:05:18.246Z,101590.88
2022-09-05T10:10:45.726Z,101579.53
2022-09-05T10:10:56.273Z,101592.63
2022-09-05T10:11:53.623Z,101581.44
2022-09-05T10:14:49.341Z,101587.44
2022-09-05T10:17:50.838Z,101576.28
2022-09-05T10:20:36.026Z,101581.56
2022-09-05T10:23:34.253Z,101578.19
2022-09-05T10:26:43.170Z,101578.19
2022-09-05T10:29:36.647Z,101571.06
2022-09-05T10:35:08.324Z,101568.72
2022-09-05T10:35:22.187Z,101568.81
2022-09-05T10:37:57.628Z,101552.69
2022-09-05T10:40:28.620Z,101549.16
2022-09-05T10:43:02.484Z,101557.31
2022-09-05T10:45:47.220Z,101550.25
2022-09-05T10:48:23.954Z,101554.28
2022-09-05T10:51:01.426Z,101550.84
2022-09-05T10:53:40.242Z,101550.84
2022-09-05T10:56:13.979Z,101542.22
2022-09-05T11:01:33.404Z,101546.00
2022-09-05T11:02:28.059Z,101545.72
2022-09-05T11:04:52.282Z,101550.94
2022-09-05T11:07:32.240Z,101537.06
2022-09-05T11:10:08.146Z,101540.28
2022-09-05T11:12:58.284Z,101535.91
2022-09-05T11:15:34.066Z,101531.31
2022-09-05T11:18:04.937Z,101525.28
2022-09-05T11:20:45.345Z,101530.09
2022-09-05T11:23:21.270Z,101530.06
2022-09-05T11:25:57.484Z,101526.50
2022-09-05T11:28:36.916Z,101527.16
2022-09-05T11:31:12.754Z,101527.03
2022-09-05T11:39:48.085Z,101529.94
2022-09-05T11:40:00.280Z,101525.91
2022-09-05T11:40:28.721Z,101534.69
2022-09-05T11:43:37.662Z,101531.50
2022-09-05T11:46:23.873Z,101529.50
2022-09-05T11:49:36.433Z,101526.53
2022-09-05T11:52:41.499Z,101522.03
2022-09-05T11:56:06.154Z,101523.50
2022-09-05T11:59:10.401Z,101520.19
2022-09-05T12:01:55.597Z,101521.16
2022-09-05T12:05:48.992Z,101520.94
2022-09-05T12:07:46.827Z,101519.91
2022-09-05T12:10:46.935Z,101510.75
2022-09-05T12:13:34.071Z,101510.88
2022-09-05T12:16:10.318Z,101501.03
2022-09-05T12:18:48.214Z,101499.72
2022-09-05T12:21:31.665Z,101498.25
2022-09-05T12:25:16.550Z,101495.41
2022-09-05T12:27:43.733Z,101491.84
2022-09-05T12:29:59.959Z,101491.63
2022-09-05T12:33:33.854Z,101496.13
2022-09-05T12:36:12.597Z,101497.34
2022-09-05T12:40:57.991Z,101487.03
2022-09-05T12:41:40.699Z,101487.56
2022-09-05T12:44:42.679Z,101484.41
2022-09-05T12:47:16.687Z,101486.94
2022-09-05T12:49:54.246Z,101489.69
2022-09-05T12:52:42.773Z,101490.41
2022-09-05T12:55:19.459Z,101490.41
2022-09-05T13:02:45.317Z,101489.66
2022-09-05T13:03:01.533Z,101483.81
2022-09-05T13:03:59.435Z,101485.66
2022-09-05T13:06:30.198Z,101483.00
2022-09-05T13:09:03.926Z,101472.28
2022-09-05T13:14:47.274Z,101473.41
2022-09-05T13:15:07.657Z,101464.63
2022-09-05T13:17:44.473Z,101470.69
2022-09-05T13:20:19.045Z,101465.97
2022-09-05T13:22:50.555Z,101458.88
2022-09-05T13:25:27.014Z,101466.16
2022-09-05T13:28:02.249Z,101455.84
2022-09-05T13:31:51.072Z,101460.41
2022-09-05T13:37:59.036Z,101447.19
2022-09-05T13:38:07.748Z,101453.56
2022-09-05T13:39:13.451Z,101452.38
2022-09-05T13:41:45.425Z,101451.28
2022-09-05T13:44:27.601Z,101452.09
2022-09-05T13:47:00.945Z,101446.31
2022-09-05T13:49:37.186Z,101437.19
2022-09-05T13:52:26.244Z,101432.72
2022-09-05T13:55:18.780Z,101435.16
2022-09-05T13:57:49.836Z,101436.63
2022-09-05T14:00:54.279Z,101441.25
2022-09-05T14:03:43.848Z,101433.13
2022-09-05T14:06:47.666Z,101439.38
2022-09-05T14:09:38.383Z,101434.84
2022-09-05T14:12:15.567Z,101438.81
2022-09-05T14:17:58.285Z,101434.53
2022-09-05T14:21:02.349Z,101430.78
2022-09-05T14:23:53.564Z,101426.16
2022-09-05T14:26:28.227Z,101427.84
2022-09-05T14:29:16.105Z,101424.34
2022-09-05T14:37:39.114Z,101413.31
2022-09-05T14:38:01.677Z,101405.41
2022-09-05T14:38:25.305Z,101397.28
2022-09-05T14:41:30.833Z,101400.25
2022-09-05T14:44:37.890Z,101402.06
2022-09-05T14:47:47.420Z,101395.31
2022-09-05T14:50:40.483Z,101390.09
2022-09-05T14:58:53.722Z,101389.59
2022-09-05T15:02:49.441Z,101376.69
2022-09-05T15:02:54.611Z,101376.13
2022-09-05T15:05:19.913Z,101379.34
2022-09-05T15:07:49.628Z,101376.56
2022-09-05T15:12:21.593Z,101374.34
2022-09-05T15:13:25.645Z,101384.72
2022-09-05T15:16:02.611Z,101369.75
2022-09-05T15:18:33.959Z,101368.88
2022-09-05T15:21:33.243Z,101369.59
2022-09-05T15:24:13.651Z,101371.81
2022-09-05T15:26:52.605Z,101364.94
2022-09-05T15:29:23.207Z,101369.47
2022-09-05T15:31:59.412Z,101379.75
2022-09-05T15:34:39.097Z,101378.47
2022-09-05T15:37:23.616Z,101378.19
2022-09-05T15:40:02.382Z,101383.09
2022-09-05T15:42:32.945Z,101379.72
2022-09-05T15:45:10.770Z,101382.63
2022-09-05T15:47:47.416Z,101380.88
2022-09-05T15:50:22.618Z,101380.22
2022-09-05T15:52:55.793Z,101373.91
2022-09-05T15:55:26.367Z,101389.63
2022-09-05T15:57:56.427Z,101385.34
2022-09-05T16:00:51.275Z,101382.25
2022-09-05T16:05:06.689Z,101384.59
2022-09-05T16:10:35.150Z,101376.88
2022-09-05T16:10:44.976Z,101380.25
2022-09-05T16:12:18.877Z,101380.59
2022-09-05T16:16:29.907Z,101377.97
2022-09-05T16:23:27.189Z,101378.97
2022-09-05T16:23:34.923Z,101377.13
2022-09-05T16:23:46.822Z,101383.53
2022-09-05T16:26:19.100Z,101391.44
2022-09-05T16:31:58.955Z,101385.41
2022-09-05T16:34:35.232Z,101384.91
2022-09-05T16:37:09.295Z,101383.53
2022-09-05T16:39:41.598Z,101382.09
2022-09-05T16:42:18.094Z,101373.41
2022-09-05T16:44:52.227Z,101389.31
2022-09-05T16:47:25.570Z,101390.69
2022-09-05T16:50:00.667Z,101383.91
2022-09-05T16:52:37.831Z,101387.16
2022-09-05T16:55:12.810Z,101378.66
2022-09-05T16:57:45.078Z,101380.00
2022-09-05T17:00:16.743Z,101366.91
2022-09-05T17:02:53.496Z,101375.63
2022-09-05T17:05:28.957Z,101371.75
2022-09-05T17:08:04.731Z,101376.81
2022-09-05T17:10:36.089Z,101372.84
2022-09-05T17:13:06.853Z,101376.03
2022-09-05T17:15:37.174Z,101378.47
2022-09-05T17:18:22.542Z,101376.16
2022-09-05T17:20:55.186Z,101378.44
2022-09-05T17:29:15.848Z,101381.47
2022-09-05T17:29:25.566Z,101378.44
2022-09-05T17:32:41.767Z,101374.16
2022-09-05T17:35:26.164Z,101378.25
2022-09-05T17:38:16.607Z,101373.19
2022-09-05T17:41:13.266Z,101372.78
2022-09-05T17:43:42.448Z,101369.63
2022-09-05T17:46:20.134Z,101380.78
2022-09-05T17:49:17.743Z,101373.91
2022-09-05T17:52:17.384Z,101368.91
2022-09-05T17:54:50.219Z,101381.03
2022-09-05T17:57:37.669Z,101382.25
2022-09-05T18:00:47.392Z,101383.50
2022-09-05T18:04:17.241Z,101401.03
2022-09-05T18:06:59.473Z,101386.97
2022-09-05T18:10:12.292Z,101393.50
2022-09-05T18:13:12.888Z,101393.81
2022-09-05T18:16:04.326Z,101390.44
2022-09-05T18:19:28.177Z,101393.38
2022-09-05T18:21:25.726Z,101391.84
2022-09-05T18:24:02.141Z,101393.78
2022-09-05T18:26:39.274Z,101393.88
2022-09-05T18:29:15.879Z,101392.22
2022-09-05T18:32:03.754Z,101399.69
2022-09-05T18:34:45.077Z,101405.31
2022-09-05T18:38:00.094Z,101405.56
2022-09-05T18:40:40.639Z,101404.97
2022-09-05T18:43:15.669Z,101403.31
2022-09-05T18:45:52.856Z,101398.22
2022-09-05T18:48:29.797Z,101389.41
2022-09-05T18:51:13.377Z,101399.59
2022-09-05T18:53:47.490Z,101398.00
2022-09-05T18:56:27.362Z,101387.41
2022-09-05T18:59:09.951Z,101396.59
2022-09-05T19:01:43.673Z,101396.84
2022-09-05T19:04:40.522Z,101396.97
2022-09-05T19:07:09.113Z,101399.00
2022-09-05T19:09:39.712Z,101398.25
2022-09-05T19:12:32.889Z,101396.63
2022-09-05T19:15:06.936Z,101401.31
2022-09-05T19:17:39.347Z,101390.72
2022-09-05T19:20:32.515Z,101398.97
2022-09-05T19:23:11.179Z,101403.63
2022-09-05T19:25:42.514Z,101393.84
2022-09-05T19:35:33.270Z,101402.09
2022-09-05T19:36:47.390Z,101391.44
2022-09-05T19:36:53.762Z,101395.25
2022-09-05T19:37:25.521Z,101391.81
2022-09-05T19:44:12.477Z,101394.81
2022-09-05T19:47:48.432Z,101398.84
2022-09-05T19:47:51.482Z,101406.75
2022-09-05T19:48:18.575Z,101398.22
2022-09-05T19:50:48.613Z,101401.09
2022-09-05T19:53:18.511Z,101392.28
2022-09-05T19:55:46.914Z,101407.78
2022-09-05T19:58:19.015Z,101405.16
2022-09-05T20:01:00.905Z,101400.81
2022-09-05T20:03:38.432Z,101397.44
2022-09-05T20:06:30.608Z,101391.25
2022-09-05T20:09:10.715Z,101386.97
2022-09-05T20:11:46.114Z,101394.38
2022-09-05T20:14:20.164Z,101390.00
2022-09-05T20:16:49.963Z,101391.94
2022-09-05T20:19:30.890Z,101393.88
2022-09-05T20:22:18.805Z,101396.75
2022-09-05T20:24:55.739Z,101395.09
2022-09-05T20:27:28.591Z,101391.69
2022-09-05T20:29:59.917Z,101392.75
2022-09-05T20:32:39.384Z,101404.59
2022-09-05T20:40:19.300Z,101399.31
2022-09-05T20:43:23.649Z,101402.28
2022-09-05T20:43:24.418Z,101409.34
2022-09-05T20:43:54.638Z,101407.78
2022-09-05T20:49:49.854Z,101405.22
2022-09-05T20:54:08.877Z,101415.19
2022-09-05T20:54:14.520Z,101409.94
2022-09-05T20:55:38.293Z,101410.03
2022-09-05T20:58:11.789Z,101408.28
2022-09-05T21:01:15.392Z,101409.31
2022-09-05T21:03:34.702Z,101407.56
2022-09-05T21:06:11.718Z,101415.69
2022-09-05T21:08:39.685Z,101417.56
2022-09-05T21:11:08.996Z,101406.81
2022-09-05T21:13:48.821Z,101407.78
2022-09-05T21:16:23.441Z,101406.03
2022-09-05T21:18:52.539Z,101409.75
2022-09-05T21:21:28.564Z,101417.00
2022-09-05T21:24:23.405Z,101418.88
2022-09-05T21:26:52.501Z,101416.28
2022-09-05T21:29:32.246Z,101411.84
2022-09-05T21:32:05.584Z,101410.13
2022-09-05T21:34:45.190Z,101412.88
2022-09-05T21:37:16.058Z,101402.22
2022-09-05T21:39:57.128Z,101398.66
2022-09-05T21:46:31.686Z,101405.06
2022-09-05T21:47:38.727Z,101405.13
2022-09-05T21:48:07.685Z,101402.53
2022-09-05T21:50:40.368Z,101392.78
2022-09-05T21:55:01.178Z,101392.00
2022-09-05T21:59:17.034Z,101387.59
2022-09-05T21:59:27.323Z,101396.75
2022-09-05T22:01:53.332Z,101384.28
2022-09-05T22:04:22.434Z,101386.19
2022-09-05T22:06:53.143Z,101380.91
2022-09-05T22:09:22.353Z,101381.91
2022-09-05T22:11:51.443Z,101378.44
2022-09-05T22:14:23.694Z,101380.41
2022-09-05T22:16:54.329Z,101380.56
2022-09-05T22:19:37.165Z,101378.88
2022-09-05T22:22:15.665Z,101381.69
2022-09-05T22:24:47.882Z,101379.13
2022-09-05T22:27:19.975Z,101372.09
2022-09-05T22:29:50.485Z,101377.56
2022-09-05T22:32:32.401Z,101367.84
2022-09-05T22:35:26.997Z,101361.59
2022-09-05T22:37:59.173Z,101350.06
2022-09-05T22:40:28.117Z,101354.72
2022-09-05T22:42:56.793Z,101361.13
2022-09-05T22:45:26.129Z,101352.25
2022-09-05T22:47:54.202Z,101352.34
2022-09-05T22:50:23.066Z,101353.38
2022-09-05T22:52:51.099Z,101335.53
2022-09-05T22:55:19.276Z,101341.03
2022-09-05T22:57:47.261Z,101336.63
2022-09-05T23:00:15.912Z,101343.88
2022-09-05T23:02:48.950Z,101342.19
2022-09-05T23:05:19.481Z,101340.56
2022-09-05T23:07:47.221Z,101346.09
2022-09-05T23:10:15.506Z,101340.81
2022-09-05T23:12:43.218Z,101340.03
2022-09-05T23:15:11.670Z,101338.38
2022-09-05T23:17:39.413Z,101344.75
2022-09-05T23:20:10.505Z,101345.69
2022-09-05T23:22:39.024Z,101332.34
2022-09-05T23:25:08.163Z,101325.31
2022-09-05T23:27:36.757Z,101328.97
2022-09-05T23:30:05.831Z,101324.56
2022-09-05T23:32:33.539Z,101322.84
2022-09-05T23:35:01.767Z,101322.06
2022-09-05T23:37:30.809Z,101315.94
2022-09-05T23:39:58.591Z,101317.78
2022-09-05T23:42:26.357Z,101320.56
2022-09-05T23:44:54.230Z,101317.09
2022-09-05T23:47:21.905Z,101311.78
2022-09-05T23:49:49.597Z,101302.06
2022-09-05T23:52:17.347Z,101303.00
2022-09-05T23:54:46.364Z,101307.59
2022-09-05T23:57:14.166Z,101302.31
2022-09-05T23:59:41.852Z,101301.50
